createdAt,value
2023-06-10T00:00:48.730Z,100.00
2023-06-10T00:03:16.824Z,100.00
2023-06-10T00:05:44.650Z,100.00
2023-06-10T00:08:12.837Z,100.00
2023-06-10T00:10:40.581Z,100.00
2023-06-10T00:13:09.989Z,100.00
2023-06-10T00:15:37.793Z,100.00
2023-06-10T00:18:07.171Z,100.00
2023-06-10T00:20:38.853Z,100.00
2023-06-10T00:23:09.394Z,100.00
2023-06-10T00:25:37.254Z,100.00
2023-06-10T00:28:05.185Z,100.00
2023-06-10T00:30:33.082Z,100.00
2023-06-10T00:33:01.203Z,100.00
2023-06-10T00:35:30.506Z,100.00
2023-06-10T00:37:58.273Z,100.00
2023-06-10T00:40:26.109Z,100.00
2023-06-10T00:42:53.900Z,100.00
2023-06-10T00:45:23.542Z,100.00
2023-06-10T00:47:51.347Z,100.00
2023-06-10T00:50:19.416Z,100.00
2023-06-10T00:52:49.548Z,100.00
2023-06-10T00:55:19.003Z,100.00
2023-06-10T00:57:49.350Z,100.00
2023-06-10T01:00:17.879Z,100.00
2023-06-10T01:02:45.706Z,100.00
2023-06-10T01:05:13.783Z,100.00
2023-06-10T01:07:49.203Z,100.00
2023-06-10T01:10:25.865Z,100.00
2023-06-10T01:13:03.642Z,100.00
2023-06-10T01:15:32.790Z,100.00
2023-06-10T01:18:03.058Z,100.00
2023-06-10T01:20:33.595Z,100.00
2023-06-10T01:23:04.176Z,100.00
2023-06-10T01:25:34.139Z,100.00
2023-06-10T01:28:07.650Z,100.00
2023-06-10T01:30:46.751Z,100.00
2023-06-10T01:33:19.314Z,100.00
2023-06-10T01:35:48.986Z,100.00
2023-06-10T01:38:21.309Z,100.00
2023-06-10T01:40:51.445Z,100.00
2023-06-10T01:43:19.217Z,100.00
2023-06-10T01:45:47.489Z,100.00
2023-06-10T01:48:15.306Z,100.00
2023-06-10T01:50:44.950Z,100.00
2023-06-10T01:53:12.818Z,100.00
2023-06-10T01:55:42.018Z,100.00
2023-06-10T01:58:09.794Z,100.00
2023-06-10T02:00:37.547Z,100.00
2023-06-10T02:03:05.535Z,100.00
2023-06-10T02:05:33.378Z,100.00
2023-06-10T02:08:01.737Z,100.00
2023-06-10T02:10:29.574Z,100.00
2023-06-10T02:13:00.462Z,100.00
2023-06-10T02:15:28.242Z,100.00
2023-06-10T02:17:56.966Z,100.00
2023-06-10T02:20:24.809Z,100.00
2023-06-10T02:22:52.804Z,100.00
2023-06-10T02:25:20.632Z,100.00
2023-06-10T02:27:48.415Z,100.00
2023-06-10T02:30:17.707Z,100.00
2023-06-10T02:32:48.933Z,100.00
2023-06-10T02:35:18.527Z,100.00
2023-06-10T02:37:46.657Z,100.00
2023-06-10T02:40:14.540Z,100.00
2023-06-10T02:42:42.339Z,100.00
2023-06-10T02:45:10.958Z,100.00
2023-06-10T02:47:43.989Z,100.00
2023-06-10T02:50:13.529Z,100.00
2023-06-10T02:52:51.486Z,100.00
2023-06-10T02:55:19.562Z,100.00
2023-06-10T02:57:53.389Z,100.00
2023-06-10T03:00:22.621Z,100.00
2023-06-10T03:02:52.374Z,100.00
2023-06-10T03:05:25.130Z,100.00
2023-06-10T03:07:55.155Z,100.00
2023-06-10T03:10:23.690Z,100.00
2023-06-10T03:12:51.550Z,100.00
2023-06-10T03:15:21.838Z,100.00
2023-06-10T03:17:50.105Z,100.00
2023-06-10T03:20:19.337Z,100.00
2023-06-10T03:22:48.174Z,100.00
2023-06-10T03:25:15.964Z,100.00
2023-06-10T03:27:47.718Z,100.00
2023-06-10T03:30:16.197Z,100.00
2023-06-10T03:32:45.299Z,100.00
2023-06-10T03:35:16.605Z,100.00
2023-06-10T03:37:46.400Z,100.00
2023-06-10T03:40:14.327Z,100.00
2023-06-10T03:42:46.032Z,100.00
2023-06-10T03:45:16.147Z,100.00
2023-06-10T03:47:44.433Z,100.00
2023-06-10T03:50:15.223Z,100.00
2023-06-10T03:52:47.975Z,100.00
2023-06-10T03:55:18.011Z,100.00
2023-06-10T03:57:47.190Z,100.00
2023-06-10T04:00:16.416Z,100.00
2023-06-10T04:02:47.542Z,100.00
2023-06-10T04:05:23.637Z,100.00
2023-06-10T04:07:52.851Z,100.00
2023-06-10T04:10:21.461Z,100.00
2023-06-10T04:12:49.294Z,100.00
2023-06-10T04:15:17.218Z,100.00
2023-06-10T04:17:45.297Z,100.00
2023-06-10T04:20:14.469Z,100.00
2023-06-10T04:22:46.017Z,100.00
2023-06-10T04:25:15.384Z,100.00
2023-06-10T04:27:43.893Z,100.00
2023-06-10T04:30:13.524Z,100.00
2023-06-10T04:32:42.248Z,100.00
2023-06-10T04:35:16.090Z,100.00
2023-06-10T04:37:44.472Z,100.00
2023-06-10T04:40:13.267Z,100.00
2023-06-10T04:42:43.168Z,100.00
2023-06-10T04:45:12.005Z,100.00
2023-06-10T04:47:41.133Z,100.00
2023-06-10T04:50:09.842Z,100.00
2023-06-10T04:52:37.669Z,100.00
2023-06-10T04:55:07.244Z,100.00
2023-06-10T04:57:35.402Z,100.00
2023-06-10T05:00:07.060Z,100.00
2023-06-10T05:02:34.840Z,100.00
2023-06-10T05:05:02.664Z,100.00
2023-06-10T05:07:30.494Z,100.00
2023-06-10T05:09:58.226Z,100.00
2023-06-10T05:12:26.056Z,100.00
2023-06-10T05:14:53.850Z,100.00
2023-06-10T05:17:23.017Z,100.00
2023-06-10T05:19:51.009Z,100.00
2023-06-10T05:22:19.084Z,100.00
2023-06-10T05:24:46.938Z,100.00
2023-06-10T05:27:14.716Z,100.00
2023-06-10T05:29:42.482Z,100.00
2023-06-10T05:32:11.018Z,100.00
2023-06-10T05:34:40.183Z,100.00
2023-06-10T05:37:07.984Z,100.00
2023-06-10T05:39:38.540Z,100.00
2023-06-10T05:42:07.665Z,100.00
2023-06-10T05:44:36.042Z,100.00
2023-06-10T05:47:03.943Z,100.00
2023-06-10T05:49:31.943Z,100.00
2023-06-10T05:52:01.238Z,100.00
2023-06-10T05:54:30.281Z,100.00
2023-06-10T05:56:58.655Z,100.00
2023-06-10T05:59:26.472Z,100.00
2023-06-10T06:01:54.363Z,100.00
2023-06-10T06:04:22.222Z,100.00
2023-06-10T06:06:50.142Z,100.00
2023-06-10T06:09:19.298Z,100.00
2023-06-10T06:11:47.192Z,100.00
2023-06-10T06:14:15.032Z,100.00
2023-06-10T06:16:42.814Z,100.00
2023-06-10T06:19:12.194Z,100.00
2023-06-10T06:21:40.007Z,100.00
2023-06-10T06:24:08.828Z,100.00
2023-06-10T06:26:38.073Z,100.00
2023-06-10T06:29:05.882Z,100.00
2023-06-10T06:31:33.734Z,100.00
2023-06-10T06:34:01.648Z,100.00
2023-06-10T06:36:29.471Z,100.00
2023-06-10T06:38:58.374Z,100.00
2023-06-10T06:41:26.723Z,100.00
2023-06-10T06:43:56.016Z,100.00
2023-06-10T06:46:31.832Z,100.00
2023-06-10T06:48:59.780Z,100.00
2023-06-10T06:51:27.633Z,100.00
2023-06-10T06:53:59.728Z,100.00
2023-06-10T06:56:28.164Z,100.00
2023-06-10T06:58:58.322Z,100.00
2023-06-10T07:01:26.395Z,100.00
2023-06-10T07:03:54.318Z,100.00
2023-06-10T07:06:22.149Z,100.00
2023-06-10T07:08:52.631Z,100.00
2023-06-10T07:11:20.471Z,100.00
2023-06-10T07:13:48.445Z,100.00
2023-06-10T07:16:17.590Z,100.00
2023-06-10T07:18:45.593Z,100.00
2023-06-10T07:21:13.876Z,100.00
2023-06-10T07:23:44.316Z,100.00
2023-06-10T07:26:12.178Z,100.00
2023-06-10T07:28:40.125Z,100.00
2023-06-10T07:31:09.176Z,100.00
2023-06-10T07:33:40.126Z,100.00
2023-06-10T07:36:08.352Z,100.00
2023-06-10T07:38:36.359Z,100.00
2023-06-10T07:41:04.168Z,100.00
2023-06-10T07:43:32.060Z,100.00
2023-06-10T07:46:00.550Z,100.00
2023-06-10T07:48:28.464Z,100.00
2023-06-10T07:50:57.588Z,100.00
2023-06-10T07:53:25.415Z,99.59
2023-06-10T07:55:53.141Z,100.00
2023-06-10T07:58:21.022Z,100.00
2023-06-10T08:00:49.029Z,100.00
2023-06-10T08:03:16.940Z,95.28
2023-06-10T08:05:45.035Z,95.08
2023-06-10T08:08:15.160Z,92.39
2023-06-10T08:10:42.936Z,92.24
2023-06-10T08:13:11.021Z,91.02
2023-06-10T08:15:38.907Z,91.54
2023-06-10T08:18:06.797Z,92.12
2023-06-10T08:20:34.695Z,90.16
2023-06-10T08:23:02.539Z,90.82
2023-06-10T08:25:31.701Z,91.99
2023-06-10T08:27:59.551Z,92.04
2023-06-10T08:30:27.393Z,90.48
2023-06-10T08:32:55.229Z,90.60
2023-06-10T08:35:23.042Z,88.23
2023-06-10T08:37:51.106Z,83.59
2023-06-10T08:40:19.070Z,81.86
2023-06-10T08:42:55.500Z,78.00
2023-06-10T08:45:25.612Z,78.22
2023-06-10T08:47:55.985Z,80.78
2023-06-10T08:50:24.041Z,78.86
2023-06-10T08:52:56.337Z,72.00
2023-06-10T08:55:33.717Z,68.41
2023-06-10T08:58:03.332Z,69.18
2023-06-10T09:00:33.638Z,69.25
2023-06-10T09:03:04.954Z,68.57
2023-06-10T09:05:35.798Z,66.85
2023-06-10T09:08:04.259Z,69.94
2023-06-10T09:10:32.183Z,77.41
2023-06-10T09:13:00.013Z,71.02
2023-06-10T09:15:29.538Z,70.21
2023-06-10T09:17:57.481Z,68.03
2023-06-10T09:20:25.372Z,63.50
2023-06-10T09:22:53.386Z,69.54
2023-06-10T09:25:21.144Z,67.53
2023-06-10T09:27:51.973Z,72.50
2023-06-10T09:30:28.230Z,76.12
2023-06-10T09:32:58.714Z,69.87
2023-06-10T09:35:27.762Z,67.36
2023-06-10T09:37:56.873Z,65.51
2023-06-10T09:40:25.255Z,65.24
2023-06-10T09:42:56.056Z,67.38
2023-06-10T09:45:25.011Z,66.47
2023-06-10T09:47:54.748Z,71.11
2023-06-10T09:50:24.818Z,72.05
2023-06-10T09:52:53.062Z,56.17
2023-06-10T09:55:20.982Z,59.82
2023-06-10T09:57:51.664Z,65.61
2023-06-10T10:00:20.239Z,66.61
2023-06-10T10:02:50.620Z,64.43
2023-06-10T10:05:20.651Z,62.12
2023-06-10T10:07:50.164Z,59.81
2023-06-10T10:10:19.879Z,52.91
2023-06-10T10:12:49.267Z,54.24
2023-06-10T10:15:19.326Z,58.89
2023-06-10T10:17:51.570Z,56.03
2023-06-10T10:20:24.746Z,58.30
2023-06-10T10:22:58.420Z,58.79
2023-06-10T10:25:30.734Z,56.26
2023-06-10T10:28:04.459Z,51.53
2023-06-10T10:30:37.686Z,49.01
2023-06-10T10:33:10.879Z,47.97
2023-06-10T10:35:40.068Z,48.48
2023-06-10T10:38:11.149Z,48.62
2023-06-10T10:40:40.205Z,45.63
2023-06-10T10:43:08.814Z,48.50
2023-06-10T10:45:37.088Z,49.54
2023-06-10T10:48:12.574Z,49.51
2023-06-10T10:50:41.522Z,49.63
2023-06-10T10:53:10.787Z,49.96
2023-06-10T10:55:38.835Z,50.91
2023-06-10T10:58:08.402Z,50.85
2023-06-10T11:00:37.310Z,50.12
2023-06-10T11:03:11.524Z,49.70
2023-06-10T11:05:42.211Z,48.57
2023-06-10T11:08:11.683Z,43.00
2023-06-10T11:10:40.705Z,44.63
2023-06-10T11:13:10.198Z,44.15
2023-06-10T11:15:44.958Z,42.98
2023-06-10T11:18:15.269Z,41.37
2023-06-10T11:21:02.106Z,40.99
2023-06-10T11:23:41.667Z,42.51
2023-06-10T11:26:32.759Z,42.60
2023-06-10T11:29:11.294Z,40.19
2023-06-10T11:31:44.413Z,40.89
2023-06-10T11:34:12.700Z,39.96
2023-06-10T11:36:43.517Z,40.22
2023-06-10T11:39:13.496Z,40.93
2023-06-10T11:41:41.978Z,40.51
2023-06-10T11:44:11.476Z,41.32
2023-06-10T11:46:39.732Z,43.57
2023-06-10T11:49:08.275Z,43.70
2023-06-10T11:51:37.924Z,44.65
2023-06-10T11:54:06.098Z,44.50
2023-06-10T11:56:35.525Z,44.78
2023-06-10T11:59:06.676Z,43.64
2023-06-10T12:01:38.352Z,43.91
2023-06-10T12:04:09.494Z,42.38
2023-06-10T12:06:41.996Z,41.43
2023-06-10T12:09:24.421Z,40.73
2023-06-10T12:11:59.009Z,40.03
2023-06-10T12:15:07.269Z,40.82
2023-06-10T12:17:40.253Z,40.80
2023-06-10T12:20:10.076Z,41.75
2023-06-10T12:22:38.924Z,41.11
2023-06-10T12:25:09.180Z,41.96
2023-06-10T12:27:40.276Z,41.41
2023-06-10T12:30:09.079Z,41.53
2023-06-10T12:32:38.370Z,43.04
2023-06-10T12:35:08.089Z,44.97
2023-06-10T12:37:38.611Z,43.45
2023-06-10T12:40:09.775Z,43.97
2023-06-10T12:42:39.877Z,45.08
2023-06-10T12:45:11.168Z,44.79
2023-06-10T12:47:40.623Z,41.40
2023-06-10T12:50:10.004Z,39.93
2023-06-10T12:52:38.096Z,38.53
2023-06-10T12:55:07.534Z,38.50
2023-06-10T12:57:35.853Z,37.36
2023-06-10T13:00:09.617Z,36.61
2023-06-10T13:02:37.463Z,35.34
2023-06-10T13:05:05.682Z,35.22
2023-06-10T13:07:33.904Z,35.20
2023-06-10T13:10:02.273Z,34.94
2023-06-10T13:12:42.303Z,34.75
2023-06-10T13:15:16.809Z,36.44
2023-06-10T13:17:44.852Z,33.49
2023-06-10T13:20:12.894Z,34.67
2023-06-10T13:22:40.768Z,35.97
2023-06-10T13:25:09.740Z,36.27
2023-06-10T13:27:39.847Z,35.60
2023-06-10T13:30:09.772Z,35.41
2023-06-10T13:32:39.169Z,35.17
2023-06-10T13:35:08.686Z,34.73
2023-06-10T13:37:37.368Z,34.90
2023-06-10T13:40:06.349Z,34.82
2023-06-10T13:42:34.661Z,35.67
2023-06-10T13:45:02.411Z,36.15
2023-06-10T13:47:35.109Z,36.16
2023-06-10T13:50:04.478Z,37.01
2023-06-10T13:52:32.313Z,36.32
2023-06-10T13:55:00.080Z,37.66
2023-06-10T13:57:27.918Z,38.02
2023-06-10T13:59:57.116Z,37.84
2023-06-10T14:02:25.035Z,36.41
2023-06-10T14:04:53.237Z,36.64
2023-06-10T14:07:22.420Z,36.87
2023-06-10T14:09:52.590Z,35.87
2023-06-10T14:12:20.454Z,37.51
2023-06-10T14:14:48.509Z,37.57
2023-06-10T14:17:16.470Z,37.44
2023-06-10T14:19:44.451Z,36.47
2023-06-10T14:22:12.253Z,37.52
2023-06-10T14:24:41.437Z,36.40
2023-06-10T14:27:09.354Z,36.57
2023-06-10T14:29:37.161Z,37.16
2023-06-10T14:32:09.130Z,37.12
2023-06-10T14:34:37.569Z,38.13
2023-06-10T14:37:08.413Z,38.68
2023-06-10T14:39:36.385Z,40.00
2023-06-10T14:42:06.800Z,39.39
2023-06-10T14:44:34.783Z,39.86
2023-06-10T14:47:02.754Z,41.92
2023-06-10T14:49:30.656Z,40.71
2023-06-10T14:51:58.434Z,39.46
2023-06-10T14:54:26.244Z,40.74
2023-06-10T14:56:56.667Z,40.44
2023-06-10T14:59:25.796Z,40.73
2023-06-10T15:01:54.348Z,40.35
2023-06-10T15:04:24.484Z,39.21
2023-06-10T15:06:52.930Z,41.28
2023-06-10T15:09:21.019Z,40.27
2023-06-10T15:11:49.352Z,39.85
2023-06-10T15:14:17.214Z,42.40
2023-06-10T15:16:46.422Z,40.83
2023-06-10T15:19:14.300Z,40.10
2023-06-10T15:21:42.167Z,41.22
2023-06-10T15:24:10.622Z,40.20
2023-06-10T15:26:38.675Z,40.82
2023-06-10T15:29:07.283Z,41.04
2023-06-10T15:31:35.465Z,40.71
2023-06-10T15:34:05.816Z,41.77
2023-06-10T15:36:33.640Z,41.65
2023-06-10T15:39:04.060Z,40.26
2023-06-10T15:41:31.843Z,39.55
2023-06-10T15:44:00.784Z,38.98
2023-06-10T15:46:29.289Z,39.04
2023-06-10T15:48:57.254Z,39.11
2023-06-10T15:51:26.537Z,39.86
2023-06-10T15:53:54.391Z,41.33
2023-06-10T15:56:23.674Z,40.87
2023-06-10T15:58:51.578Z,40.72
2023-06-10T16:01:19.485Z,40.24
2023-06-10T16:03:47.382Z,38.91
2023-06-10T16:06:16.495Z,39.02
2023-06-10T16:08:46.508Z,36.86
2023-06-10T16:11:14.347Z,35.81
2023-06-10T16:13:42.479Z,35.58
2023-06-10T16:16:10.322Z,34.11
2023-06-10T16:18:38.173Z,33.27
2023-06-10T16:21:06.522Z,33.14
2023-06-10T16:23:34.446Z,32.72
2023-06-10T16:26:04.188Z,33.31
2023-06-10T16:28:32.163Z,34.10
2023-06-10T16:31:00.032Z,35.62
2023-06-10T16:33:27.909Z,35.87
2023-06-10T16:35:55.759Z,36.95
2023-06-10T16:38:24.116Z,37.50
2023-06-10T16:40:51.994Z,38.54
2023-06-10T16:43:21.293Z,39.69
2023-06-10T16:45:49.161Z,40.27
2023-06-10T16:48:16.919Z,42.23
2023-06-10T16:50:44.704Z,44.16
2023-06-10T16:53:12.515Z,45.75
2023-06-10T16:55:42.354Z,45.11
2023-06-10T16:58:10.147Z,44.59
2023-06-10T17:00:39.524Z,42.51
2023-06-10T17:03:09.142Z,41.36
2023-06-10T17:05:37.151Z,40.47
2023-06-10T17:08:05.365Z,40.71
2023-06-10T17:10:33.195Z,39.62
2023-06-10T17:13:01.005Z,38.38
2023-06-10T17:15:29.036Z,36.66
2023-06-10T17:17:59.347Z,34.79
2023-06-10T17:20:28.034Z,32.53
2023-06-10T17:22:56.119Z,30.92
2023-06-10T17:25:24.597Z,31.87
2023-06-10T17:27:52.481Z,33.29
2023-06-10T17:30:20.358Z,32.70
2023-06-10T17:32:48.234Z,32.05
2023-06-10T17:35:17.536Z,33.58
2023-06-10T17:37:45.334Z,35.80
2023-06-10T17:40:14.499Z,36.97
2023-06-10T17:42:42.365Z,38.22
2023-06-10T17:45:11.202Z,39.46
2023-06-10T17:47:39.452Z,40.86
2023-06-10T17:50:08.175Z,41.80
2023-06-10T17:52:37.406Z,43.36
2023-06-10T17:55:05.800Z,44.71
2023-06-10T17:57:33.806Z,46.32
2023-06-10T18:00:01.672Z,46.24
2023-06-10T18:02:29.555Z,47.06
2023-06-10T18:04:57.345Z,48.21
2023-06-10T18:07:25.204Z,48.48
2023-06-10T18:09:54.433Z,49.69
2023-06-10T18:12:22.377Z,50.68
2023-06-10T18:14:50.375Z,51.76
2023-06-10T18:17:18.162Z,53.17
2023-06-10T18:19:46.059Z,54.12
2023-06-10T18:22:14.104Z,55.67
2023-06-10T18:24:42.013Z,58.34
2023-06-10T18:27:13.380Z,59.74
2023-06-10T18:29:42.658Z,60.07
2023-06-10T18:32:11.331Z,62.55
2023-06-10T18:34:39.329Z,61.12
2023-06-10T18:37:25.794Z,61.56
2023-06-10T18:39:57.142Z,61.81
2023-06-10T18:42:26.701Z,63.15
2023-06-10T18:44:54.471Z,64.14
2023-06-10T18:47:22.381Z,65.62
2023-06-10T18:49:50.312Z,67.16
2023-06-10T18:52:18.128Z,68.83
2023-06-10T18:54:45.920Z,70.22
2023-06-10T18:57:14.447Z,70.69
2023-06-10T18:59:44.218Z,72.71
2023-06-10T19:02:12.490Z,72.63
2023-06-10T19:04:40.710Z,73.51
2023-06-10T19:07:08.517Z,74.78
2023-06-10T19:09:36.264Z,75.53
2023-06-10T19:12:04.298Z,76.28
2023-06-10T19:14:32.171Z,77.45
2023-06-10T19:17:01.332Z,77.20
2023-06-10T19:19:29.240Z,77.43
2023-06-10T19:21:58.419Z,78.56
2023-06-10T19:24:26.395Z,78.60
2023-06-10T19:26:54.447Z,79.13
2023-06-10T19:29:22.342Z,79.22
2023-06-10T19:31:50.442Z,79.83
2023-06-10T19:34:22.558Z,80.65
2023-06-10T19:36:50.478Z,80.81
2023-06-10T19:39:18.539Z,81.31
2023-06-10T19:41:46.502Z,82.63
2023-06-10T19:44:14.393Z,83.17
2023-06-10T19:46:42.324Z,84.34
2023-06-10T19:49:10.290Z,84.81
2023-06-10T19:51:39.430Z,85.67
2023-06-10T19:54:07.248Z,86.90
2023-06-10T19:56:35.085Z,88.36
2023-06-10T19:59:03.063Z,89.56
2023-06-10T20:01:31.124Z,89.93
2023-06-10T20:03:59.126Z,90.37
2023-06-10T20:06:27.062Z,91.74
2023-06-10T20:08:56.389Z,93.03
2023-06-10T20:11:24.308Z,93.50
2023-06-10T20:13:52.172Z,93.80
2023-06-10T20:16:20.086Z,94.72
2023-06-10T20:18:51.746Z,95.13
2023-06-10T20:21:20.788Z,95.17
2023-06-10T20:23:50.648Z,94.68
2023-06-10T20:26:20.070Z,95.63
2023-06-10T20:28:48.554Z,95.04
2023-06-10T20:31:16.433Z,96.26
2023-06-10T20:33:44.325Z,95.90
2023-06-10T20:36:12.150Z,96.30
2023-06-10T20:38:39.953Z,96.33
2023-06-10T20:41:07.821Z,96.60
2023-06-10T20:43:37.005Z,96.92
2023-06-10T20:46:06.253Z,96.69
2023-06-10T20:48:34.210Z,96.97
2023-06-10T20:51:01.973Z,97.66
2023-06-10T20:53:30.007Z,96.87
2023-06-10T20:55:59.284Z,97.04
2023-06-10T20:58:27.220Z,97.75
2023-06-10T21:00:56.500Z,99.44
2023-06-10T21:03:24.822Z,99.33
2023-06-10T21:05:52.727Z,100.00
2023-06-10T21:08:20.767Z,99.29
2023-06-10T21:10:48.544Z,98.97
2023-06-10T21:13:16.546Z,99.70
2023-06-10T21:15:45.131Z,100.00
2023-06-10T21:18:14.504Z,100.00
2023-06-10T21:20:43.251Z,100.00
2023-06-10T21:23:11.497Z,100.00
2023-06-10T21:25:39.430Z,100.00
2023-06-10T21:28:07.298Z,100.00
2023-06-10T21:30:35.019Z,100.00
2023-06-10T21:33:02.829Z,100.00
2023-06-10T21:35:32.252Z,100.00
2023-06-10T21:38:00.064Z,100.00
2023-06-10T21:40:28.169Z,100.00
2023-06-10T21:42:55.935Z,100.00
2023-06-10T21:45:23.771Z,100.00
2023-06-10T21:47:51.601Z,100.00
2023-06-10T21:50:19.409Z,100.00
2023-06-10T21:52:48.570Z,100.00
2023-06-10T21:55:16.698Z,100.00
2023-06-10T21:57:44.472Z,100.00
2023-06-10T22:00:14.398Z,100.00
2023-06-10T22:02:43.101Z,100.00
2023-06-10T22:05:11.140Z,100.00
2023-06-10T22:07:39.281Z,100.00
2023-06-10T22:10:08.981Z,100.00
2023-06-10T22:12:36.826Z,100.00
2023-06-10T22:15:05.393Z,100.00
2023-06-10T22:17:33.223Z,100.00
2023-06-10T22:20:01.176Z,100.00
2023-06-10T22:22:28.946Z,100.00
2023-06-10T22:24:57.270Z,100.00
2023-06-10T22:27:26.661Z,100.00
2023-06-10T22:29:54.505Z,100.00
2023-06-10T22:32:22.391Z,100.00
2023-06-10T22:34:50.263Z,100.00
2023-06-10T22:37:18.173Z,100.00
2023-06-10T22:39:45.976Z,100.00
2023-06-10T22:42:13.872Z,100.00
2023-06-10T22:44:43.981Z,100.00
2023-06-10T22:47:13.150Z,100.00
2023-06-10T22:49:41.691Z,100.00
2023-06-10T22:52:09.884Z,100.00
2023-06-10T22:54:38.325Z,100.00
2023-06-10T22:57:06.597Z,100.00
2023-06-10T22:59:34.391Z,100.00
2023-06-10T23:02:03.652Z,100.00
2023-06-10T23:04:31.575Z,100.00
2023-06-10T23:06:59.361Z,100.00
2023-06-10T23:09:27.167Z,100.00
2023-06-10T23:11:55.000Z,100.00
2023-06-10T23:14:23.243Z,100.00
2023-06-10T23:16:52.499Z,100.00
2023-06-10T23:19:22.746Z,100.00
2023-06-10T23:21:54.403Z,100.00
2023-06-10T23:24:30.433Z,100.00
2023-06-10T23:27:00.191Z,100.00
2023-06-10T23:29:28.605Z,100.00
2023-06-10T23:31:57.220Z,100.00
2023-06-10T23:34:26.484Z,100.00
2023-06-10T23:36:54.894Z,100.00
2023-06-10T23:39:23.430Z,100.00
2023-06-10T23:41:51.467Z,100.00
2023-06-10T23:44:19.309Z,100.00
2023-06-10T23:46:47.108Z,100.00
2023-06-10T23:49:14.949Z,100.00
2023-06-10T23:51:44.052Z,100.00
2023-06-10T23:54:13.678Z,100.00
2023-06-10T23:56:41.618Z,100.00
2023-06-10T23:59:09.521Z,100.00
